createdAt,value
2018-02-24T00:00:01.062Z,114.70
2018-02-24T00:02:30.256Z,104.50
2018-02-24T00:04:59.623Z,103.70
2018-02-24T00:07:28.949Z,106.60
2018-02-24T00:09:57.884Z,114.10
2018-02-24T00:12:26.935Z,106.93
2018-02-24T00:14:55.850Z,99.37
2018-02-24T00:17:24.933Z,111.00
2018-02-24T00:19:54.156Z,100.93
2018-02-24T00:22:23.228Z,108.00
2018-02-24T00:24:53.047Z,100.80
2018-02-24T00:27:21.970Z,110.47
2018-02-24T00:29:51.112Z,102.17
2018-02-24T00:32:19.934Z,108.17
2018-02-24T00:34:48.888Z,117.23
2018-02-24T00:37:17.956Z,104.37
2018-02-24T00:39:46.932Z,110.37
2018-02-24T00:42:16.282Z,109.82
2018-02-24T00:44:45.315Z,112.17
2018-02-24T00:47:14.443Z,101.05
2018-02-24T00:49:43.524Z,105.07
2018-02-24T00:52:12.970Z,115.85
2018-02-24T00:54:41.996Z,101.17
2018-02-24T00:57:11.185Z,122.50
2018-02-24T00:59:40.468Z,106.15
2018-02-24T01:02:09.474Z,104.60
2018-02-24T01:04:44.406Z,105.43
2018-02-24T01:07:13.460Z,104.80
2018-02-24T01:09:42.619Z,103.13
2018-02-24T01:12:11.825Z,105.47
2018-02-24T01:14:41.011Z,105.70
2018-02-24T01:17:10.177Z,100.82
2018-02-24T01:19:39.799Z,103.68
2018-02-24T01:22:08.929Z,97.20
2018-02-24T01:24:38.475Z,99.97
2018-02-24T01:27:07.849Z,108.28
2018-02-24T01:29:37.305Z,102.95
2018-02-24T01:32:06.609Z,111.67
2018-02-24T01:34:37.404Z,110.10
2018-02-24T01:37:07.331Z,113.40
2018-02-24T01:39:36.598Z,110.65
2018-02-24T01:42:06.005Z,96.05
2018-02-24T01:44:36.613Z,101.78
2018-02-24T01:47:07.749Z,100.75
2018-02-24T01:49:39.051Z,107.25
2018-02-24T01:52:09.396Z,97.18
2018-02-24T01:54:41.946Z,101.58
2018-02-24T01:57:12.462Z,105.60
2018-02-24T01:59:43.256Z,95.40
2018-02-24T02:02:14.641Z,91.82
2018-02-24T02:04:46.743Z,94.28
2018-02-24T02:07:16.132Z,102.85
2018-02-24T02:09:48.268Z,97.14
2018-02-24T02:12:18.715Z,101.87
2018-02-24T02:14:49.301Z,99.62
2018-02-24T02:17:20.875Z,97.62
2018-02-24T02:19:50.740Z,87.37
2018-02-24T02:22:22.154Z,90.64
2018-02-24T02:24:52.038Z,90.25
2018-02-24T02:27:22.101Z,97.95
2018-02-24T02:29:55.255Z,89.78
2018-02-24T02:32:25.149Z,91.45
2018-02-24T02:34:55.083Z,88.43
2018-02-24T02:37:26.421Z,91.30
2018-02-24T02:39:57.284Z,82.50
2018-02-24T02:42:27.789Z,88.82
2018-02-24T02:44:58.866Z,86.85
2018-02-24T02:47:29.752Z,94.70
2018-02-24T02:50:00.283Z,109.63
2018-02-24T02:52:31.864Z,107.34
2018-02-24T02:55:04.671Z,110.68
2018-02-24T02:57:34.434Z,121.47
2018-02-24T03:00:03.984Z,241.57
2018-02-24T03:02:35.212Z,492.55
2018-02-24T03:05:07.592Z,196.50
2018-02-24T03:07:37.205Z,112.00
2018-02-24T03:10:07.159Z,213.62
2018-02-24T03:12:36.752Z,181.82
2018-02-24T03:15:08.219Z,155.85
2018-02-24T03:17:39.508Z,112.70
2018-02-24T03:20:09.668Z,105.60
2018-02-24T03:22:39.839Z,106.80
2018-02-24T03:25:11.970Z,94.28
2018-02-24T03:27:42.485Z,93.12
2018-02-24T03:30:13.703Z,91.52
2018-02-24T03:32:43.650Z,100.35
2018-02-24T03:35:15.073Z,98.32
2018-02-24T03:37:46.042Z,99.72
2018-02-24T03:40:17.123Z,101.18
2018-02-24T03:42:46.511Z,87.20
2018-02-24T03:45:18.124Z,77.66
2018-02-24T03:47:50.007Z,89.07
2018-02-24T03:50:19.171Z,78.07
2018-02-24T03:52:49.444Z,76.80
2018-02-24T03:55:20.412Z,69.72
2018-02-24T03:57:50.991Z,78.05
2018-02-24T04:00:22.224Z,70.80
2018-02-24T04:02:53.138Z,77.43
2018-02-24T04:05:25.152Z,80.94
2018-02-24T04:07:56.452Z,77.42
2018-02-24T04:10:27.765Z,81.54
2018-02-24T04:12:57.888Z,82.62
2018-02-24T04:15:28.740Z,79.43
2018-02-24T04:18:00.203Z,76.10
2018-02-24T04:20:30.974Z,80.02
2018-02-24T04:23:02.019Z,82.20
2018-02-24T04:25:32.624Z,86.86
2018-02-24T04:28:03.093Z,76.10
2018-02-24T04:30:34.000Z,75.26
2018-02-24T04:33:06.731Z,84.47
2018-02-24T04:35:36.415Z,81.22
2018-02-24T04:38:06.697Z,77.37
2018-02-24T04:40:36.615Z,69.70
2018-02-24T04:43:07.592Z,72.68
2018-02-24T04:45:37.544Z,71.95
2018-02-24T04:48:08.587Z,75.35
2018-02-24T04:50:39.604Z,65.82
2018-02-24T04:53:11.633Z,71.78
2018-02-24T04:55:41.754Z,67.43
2018-02-24T04:58:11.554Z,68.10
2018-02-24T05:00:42.196Z,70.85
2018-02-24T05:03:13.294Z,67.10
2018-02-24T05:05:44.296Z,64.20
2018-02-24T05:08:15.301Z,61.13
2018-02-24T05:10:46.447Z,63.13
2018-02-24T05:13:17.259Z,66.50
2018-02-24T05:15:48.716Z,64.44
2018-02-24T05:18:19.114Z,60.85
2018-02-24T05:20:49.997Z,56.50
2018-02-24T05:23:21.592Z,59.90
2018-02-24T05:25:52.317Z,59.22
2018-02-24T05:28:22.943Z,55.04
2018-02-24T05:30:53.546Z,60.90
2018-02-24T05:33:24.191Z,60.08
2018-02-24T05:35:54.759Z,59.83
2018-02-24T05:38:25.533Z,67.12
2018-02-24T05:40:57.347Z,64.68
2018-02-24T05:43:27.605Z,67.60
2018-02-24T05:45:58.440Z,66.07
2018-02-24T05:48:28.863Z,58.90
2018-02-24T05:50:58.711Z,61.22
2018-02-24T05:53:29.981Z,62.15
2018-02-24T05:56:00.768Z,61.74
2018-02-24T05:58:31.714Z,66.04
2018-02-24T06:01:02.544Z,65.18
2018-02-24T06:03:33.357Z,68.22
2018-02-24T06:06:04.252Z,53.14
2018-02-24T06:08:35.781Z,59.92
2018-02-24T06:11:05.813Z,63.42
2018-02-24T06:13:36.405Z,55.26
2018-02-24T06:16:08.240Z,57.80
2018-02-24T06:18:38.811Z,64.92
2018-02-24T06:21:09.632Z,62.28
2018-02-24T06:23:39.979Z,61.37
2018-02-24T06:26:10.858Z,61.75
2018-02-24T06:28:41.831Z,57.28
2018-02-24T06:31:12.935Z,61.70
2018-02-24T06:33:44.253Z,63.66
2018-02-24T06:36:15.111Z,58.70
2018-02-24T06:38:46.620Z,54.75
2018-02-24T06:41:17.079Z,56.03
2018-02-24T06:43:49.394Z,56.50
2018-02-24T06:46:19.375Z,54.60
2018-02-24T06:48:51.070Z,52.84
2018-02-24T06:51:21.819Z,54.22
2018-02-24T06:53:53.446Z,50.12
2018-02-24T06:56:24.908Z,49.16
2018-02-24T06:58:55.646Z,49.40
2018-02-24T07:01:25.319Z,46.35
2018-02-24T07:03:56.380Z,41.17
2018-02-24T07:06:31.775Z,44.84
2018-02-24T07:09:01.267Z,48.80
2018-02-24T07:11:30.536Z,48.38
2018-02-24T07:13:59.951Z,48.17
2018-02-24T07:16:31.280Z,43.40
2018-02-24T07:19:05.558Z,48.32
2018-02-24T07:21:35.058Z,48.55
2018-02-24T07:24:04.432Z,55.80
2018-02-24T07:26:34.495Z,50.70
2018-02-24T07:29:05.084Z,35.67
2018-02-24T07:31:35.135Z,38.00
2018-02-24T07:34:05.433Z,39.93
2018-02-24T07:36:37.252Z,38.84
2018-02-24T07:39:07.757Z,34.50
2018-02-24T07:41:41.195Z,29.02
2018-02-24T07:44:11.840Z,28.26
2018-02-24T07:46:42.477Z,29.60
2018-02-24T07:49:13.182Z,26.80
2018-02-24T07:51:43.832Z,28.14
2018-02-24T07:54:14.752Z,33.10
2018-02-24T07:56:45.481Z,32.70
2018-02-24T07:59:17.333Z,28.48
2018-02-24T08:01:47.741Z,29.08
2018-02-24T08:04:17.399Z,35.70
2018-02-24T08:06:48.470Z,40.17
2018-02-24T08:09:20.398Z,29.67
2018-02-24T08:11:51.066Z,33.62
2018-02-24T08:14:21.544Z,30.50
2018-02-24T08:16:52.156Z,30.05
2018-02-24T08:19:23.551Z,30.50
2018-02-24T08:21:53.958Z,32.10
2018-02-24T08:24:24.895Z,33.42
2018-02-24T08:26:56.007Z,25.27
2018-02-24T08:29:35.695Z,31.35
2018-02-24T08:32:07.580Z,22.13
2018-02-24T08:34:42.266Z,23.50
2018-02-24T08:37:17.819Z,28.10
2018-02-24T08:39:53.707Z,27.45
2018-02-24T08:42:30.611Z,26.27
2018-02-24T08:45:04.886Z,20.25
2018-02-24T08:47:38.880Z,24.37
2018-02-24T08:50:07.949Z,28.63
2018-02-24T08:52:36.884Z,39.67
2018-02-24T08:55:05.748Z,25.93
2018-02-24T08:57:35.027Z,24.63
2018-02-24T09:00:04.261Z,11.20
2018-02-24T09:02:33.125Z,12.50
2018-02-24T09:05:02.211Z,12.40
2018-02-24T09:07:31.133Z,20.63
2018-02-24T09:10:01.328Z,10.90
2018-02-24T09:12:30.549Z,22.77
2018-02-24T09:14:59.556Z,32.53
2018-02-24T09:17:28.915Z,12.70
2018-02-24T09:19:58.494Z,13.60
2018-02-24T09:22:27.723Z,12.27
2018-02-24T09:24:57.091Z,13.65
2018-02-24T09:27:26.392Z,20.25
2018-02-24T09:29:55.835Z,21.00
2018-02-24T09:32:25.316Z,21.28
2018-02-24T09:34:54.738Z,31.97
2018-02-24T09:37:24.217Z,24.23
2018-02-24T09:39:53.880Z,19.92
2018-02-24T09:42:23.580Z,15.93
2018-02-24T09:44:54.339Z,12.26
2018-02-24T09:47:24.888Z,30.50
2018-02-24T09:49:56.605Z,9.55
2018-02-24T09:52:27.088Z,11.38
2018-02-24T09:54:58.976Z,16.95
2018-02-24T09:57:29.461Z,16.45
2018-02-24T09:59:59.518Z,9.38
2018-02-24T10:02:30.065Z,12.32
2018-02-24T10:05:02.161Z,17.70
2018-02-24T10:07:33.879Z,15.72
2018-02-24T10:10:03.880Z,12.07
2018-02-24T10:12:34.459Z,13.36
2018-02-24T10:15:05.289Z,14.95
2018-02-24T10:17:36.048Z,15.82
2018-02-24T10:20:08.663Z,20.20
2018-02-24T10:22:38.727Z,26.12
2018-02-24T10:25:09.747Z,23.15
2018-02-24T10:27:40.552Z,13.20
2018-02-24T10:30:11.156Z,9.27
2018-02-24T10:32:42.629Z,15.23
2018-02-24T10:35:13.370Z,38.62
2018-02-24T10:37:43.734Z,13.50
2018-02-24T10:40:15.314Z,15.60
2018-02-24T10:42:46.068Z,19.40
2018-02-24T10:45:15.984Z,10.00
2018-02-24T10:47:46.698Z,18.14
2018-02-24T10:50:17.441Z,15.74
2018-02-24T10:52:48.243Z,22.15
2018-02-24T10:55:19.301Z,16.12
2018-02-24T10:57:49.957Z,23.27
2018-02-24T11:00:20.469Z,17.60
2018-02-24T11:02:51.304Z,19.48
2018-02-24T11:05:22.545Z,17.73
2018-02-24T11:07:53.052Z,14.67
2018-02-24T11:10:25.678Z,18.88
2018-02-24T11:12:56.753Z,22.50
2018-02-24T11:15:27.440Z,30.50
2018-02-24T11:17:59.352Z,42.95
2018-02-24T11:20:29.331Z,35.43
2018-02-24T11:22:59.420Z,32.65
2018-02-24T11:25:29.560Z,28.83
2018-02-24T11:28:04.010Z,30.02
2018-02-24T11:30:33.089Z,30.60
2018-02-24T11:33:02.523Z,36.90
2018-02-24T11:35:32.780Z,22.72
2018-02-24T11:38:04.159Z,34.28
2018-02-24T11:40:36.219Z,33.44
2018-02-24T11:43:05.772Z,31.65
2018-02-24T11:45:36.518Z,24.54
2018-02-24T11:48:08.153Z,29.82
2018-02-24T11:50:38.735Z,24.64
2018-02-24T11:53:09.752Z,23.90
2018-02-24T11:55:41.714Z,27.83
2018-02-24T11:58:11.420Z,27.35
2018-02-24T12:00:42.998Z,26.76
2018-02-24T12:03:12.609Z,22.20
2018-02-24T12:05:43.087Z,21.06
2018-02-24T12:08:12.884Z,28.38
2018-02-24T12:10:43.963Z,24.98
2018-02-24T12:13:15.007Z,21.52
2018-02-24T12:15:46.079Z,18.20
2018-02-24T12:18:17.440Z,26.62
2018-02-24T12:20:48.249Z,57.35
2018-02-24T12:23:18.543Z,29.55
2018-02-24T12:25:49.518Z,24.88
2018-02-24T12:28:20.051Z,30.55
2018-02-24T12:30:51.039Z,27.58
2018-02-24T12:33:21.172Z,37.13
2018-02-24T12:35:53.762Z,32.10
2018-02-24T12:38:23.391Z,31.67
2018-02-24T12:40:54.524Z,21.86
2018-02-24T12:43:26.766Z,23.67
2018-02-24T12:45:58.945Z,26.98
2018-02-24T12:48:28.458Z,27.48
2018-02-24T12:50:58.163Z,23.75
2018-02-24T12:53:28.668Z,34.02
2018-02-24T12:56:00.972Z,28.12
2018-02-24T12:58:31.504Z,37.42
2018-02-24T13:01:01.200Z,29.20
2018-02-24T13:03:32.188Z,31.48
2018-02-24T13:06:02.411Z,36.65
2018-02-24T13:08:33.882Z,37.10
2018-02-24T13:11:05.751Z,25.70
2018-02-24T13:13:35.544Z,28.27
2018-02-24T13:16:07.137Z,38.22
2018-02-24T13:18:36.163Z,43.10
2018-02-24T13:21:06.504Z,112.18
2018-02-24T13:23:37.292Z,39.05
2018-02-24T13:26:07.562Z,29.90
2018-02-24T13:28:38.337Z,49.15
2018-02-24T13:31:07.451Z,51.60
2018-02-24T13:33:36.955Z,41.00
2018-02-24T13:36:06.464Z,31.98
2018-02-24T13:38:35.434Z,46.63
2018-02-24T13:41:04.555Z,55.22
2018-02-24T13:43:34.108Z,57.08
2018-02-24T13:46:02.984Z,44.73
2018-02-24T13:48:32.226Z,74.07
2018-02-24T13:51:01.815Z,50.93
2018-02-24T13:53:30.856Z,52.23
2018-02-24T13:55:59.787Z,51.37
2018-02-24T13:58:28.966Z,42.03
2018-02-24T14:00:57.815Z,60.93
2018-02-24T14:03:26.834Z,98.07
2018-02-24T14:05:55.998Z,54.23
2018-02-24T14:08:25.151Z,39.63
2018-02-24T14:10:53.953Z,68.07
2018-02-24T14:13:23.020Z,49.47
2018-02-24T14:15:52.172Z,44.90
2018-02-24T14:18:23.038Z,43.08
2018-02-24T14:20:51.980Z,40.17
2018-02-24T14:23:20.957Z,37.43
2018-02-24T14:25:50.139Z,47.23
2018-02-24T14:28:19.097Z,39.77
2018-02-24T14:30:47.858Z,38.13
2018-02-24T14:33:17.463Z,34.17
2018-02-24T14:35:47.584Z,32.30
2018-02-24T14:38:17.056Z,36.83
2018-02-24T14:40:46.684Z,27.23
2018-02-24T14:43:15.828Z,43.87
2018-02-24T14:45:44.969Z,29.03
2018-02-24T14:48:13.971Z,23.63
2018-02-24T14:50:42.811Z,25.00
2018-02-24T14:53:12.480Z,26.50
2018-02-24T14:55:41.665Z,33.88
2018-02-24T14:58:10.878Z,39.47
2018-02-24T15:00:39.771Z,40.57
2018-02-24T15:03:08.872Z,32.57
2018-02-24T15:05:38.456Z,37.78
2018-02-24T15:08:07.312Z,40.47
2018-02-24T15:10:36.200Z,45.23
2018-02-24T15:13:05.531Z,35.80
2018-02-24T15:15:34.702Z,39.13
2018-02-24T15:18:05.363Z,41.47
2018-02-24T15:20:35.024Z,50.13
2018-02-24T15:23:06.200Z,85.13
2018-02-24T15:25:39.794Z,107.13
2018-02-24T15:28:08.872Z,68.13
2018-02-24T15:30:38.332Z,41.00
2018-02-24T15:33:07.051Z,42.60
2018-02-24T15:35:35.937Z,52.40
2018-02-24T15:38:04.653Z,46.17
2018-02-24T15:40:33.857Z,41.30
2018-02-24T15:43:02.954Z,43.43
2018-02-24T15:45:32.136Z,43.30
2018-02-24T15:48:00.823Z,43.57
2018-02-24T15:50:35.527Z,42.43
2018-02-24T15:53:04.489Z,43.97
2018-02-24T15:55:35.149Z,39.43
2018-02-24T15:58:04.871Z,33.50
2018-02-24T16:00:33.905Z,24.80
2018-02-24T16:03:09.711Z,24.13
2018-02-24T16:05:43.859Z,31.90
2018-02-24T16:08:16.755Z,23.40
2018-02-24T16:10:48.245Z,40.53
2018-02-24T16:13:22.124Z,47.53
2018-02-24T16:16:00.357Z,36.43
2018-02-24T16:18:35.928Z,43.93
2018-02-24T16:21:11.299Z,33.03
2018-02-24T16:23:48.780Z,38.40
2018-02-24T16:26:24.307Z,41.83
2018-02-24T16:28:57.335Z,34.23
2018-02-24T16:31:30.322Z,63.50
2018-02-24T16:34:03.707Z,56.87
2018-02-24T16:36:36.483Z,51.87
2018-02-24T16:39:09.230Z,51.22
2018-02-24T16:41:38.945Z,26.93
2018-02-24T16:44:08.914Z,29.03
2018-02-24T16:46:38.437Z,35.40
2018-02-24T16:49:07.391Z,59.73
2018-02-24T16:51:37.010Z,45.37
2018-02-24T16:54:05.970Z,53.37
2018-02-24T16:56:35.203Z,58.10
2018-02-24T16:59:04.281Z,52.60
2018-02-24T17:01:34.000Z,57.97
2018-02-24T17:04:02.867Z,54.03
2018-02-24T17:06:31.688Z,41.77
2018-02-24T17:09:00.966Z,68.82
2018-02-24T17:11:29.810Z,60.70
2018-02-24T17:13:58.673Z,42.77
2018-02-24T17:16:29.370Z,45.67
2018-02-24T17:18:59.229Z,49.43
2018-02-24T17:21:28.167Z,46.30
2018-02-24T17:23:57.156Z,45.93
2018-02-24T17:26:25.994Z,66.93
2018-02-24T17:28:54.884Z,59.83
2018-02-24T17:31:24.928Z,58.53
2018-02-24T17:33:54.889Z,79.77
2018-02-24T17:36:24.412Z,86.90
2018-02-24T17:38:53.538Z,104.03
2018-02-24T17:41:22.381Z,104.13
2018-02-24T17:43:52.044Z,90.33
2018-02-24T17:46:21.144Z,89.23
2018-02-24T17:48:50.126Z,85.13
2018-02-24T17:51:19.115Z,67.30
2018-02-24T17:53:48.749Z,59.30
2018-02-24T17:56:17.945Z,58.70
2018-02-24T17:58:47.260Z,64.63
2018-02-24T18:01:15.852Z,67.53
2018-02-24T18:03:44.867Z,49.37
2018-02-24T18:06:15.942Z,46.73
2018-02-24T18:08:45.026Z,51.60
2018-02-24T18:11:13.831Z,66.23
2018-02-24T18:13:43.309Z,68.07
2018-02-24T18:16:12.411Z,65.40
2018-02-24T18:18:41.232Z,78.47
2018-02-24T18:21:11.772Z,67.77
2018-02-24T18:23:40.854Z,58.50
2018-02-24T18:26:10.793Z,58.20
2018-02-24T18:28:39.968Z,68.80
2018-02-24T18:31:10.113Z,59.80
2018-02-24T18:33:39.398Z,72.85
2018-02-24T18:36:08.696Z,68.00
2018-02-24T18:38:38.242Z,64.67
2018-02-24T18:41:07.234Z,53.73
2018-02-24T18:43:36.444Z,51.50
2018-02-24T18:46:05.340Z,45.77
2018-02-24T18:48:34.232Z,47.83
2018-02-24T18:51:03.287Z,68.93
2018-02-24T18:53:32.002Z,46.33
2018-02-24T18:56:01.224Z,31.17
2018-02-24T18:58:30.681Z,32.27
2018-02-24T19:00:59.576Z,35.92
2018-02-24T19:03:28.705Z,37.50
2018-02-24T19:05:58.419Z,32.72
2018-02-24T19:08:27.530Z,47.08
2018-02-24T19:10:56.543Z,45.95
2018-02-24T19:13:26.207Z,38.28
2018-02-24T19:15:55.470Z,47.22
2018-02-24T19:18:24.652Z,27.92
2018-02-24T19:20:54.046Z,34.47
2018-02-24T19:23:26.784Z,67.86
2018-02-24T19:25:55.939Z,53.28
2018-02-24T19:28:32.716Z,76.40
2018-02-24T19:31:02.168Z,94.22
2018-02-24T19:33:31.298Z,82.30
2018-02-24T19:36:00.682Z,155.02
2018-02-24T19:38:31.290Z,174.45
2018-02-24T19:41:00.783Z,206.13
2018-02-24T19:43:29.960Z,239.68
2018-02-24T19:45:59.342Z,120.47
2018-02-24T19:48:28.738Z,188.34
2018-02-24T19:50:58.352Z,166.16
2018-02-24T19:53:32.164Z,132.11
2018-02-24T19:56:01.866Z,113.85
2018-02-24T19:58:31.143Z,89.78
2018-02-24T20:01:03.147Z,93.02
2018-02-24T20:03:33.605Z,75.90
2018-02-24T20:06:05.644Z,73.33
2018-02-24T20:08:34.836Z,90.66
2018-02-24T20:11:04.504Z,106.70
2018-02-24T20:13:35.931Z,171.18
2018-02-24T20:16:04.863Z,116.70
2018-02-24T20:18:35.340Z,67.82
2018-02-24T20:21:06.155Z,66.10
2018-02-24T20:23:38.514Z,58.60
2018-02-24T20:26:09.222Z,47.76
2018-02-24T20:28:39.074Z,30.80
2018-02-24T20:31:11.009Z,30.85
2018-02-24T20:33:41.572Z,30.70
2018-02-24T20:36:12.391Z,24.63
2018-02-24T20:38:43.216Z,69.62
2018-02-24T20:41:14.698Z,45.72
2018-02-24T20:43:46.160Z,56.64
2018-02-24T20:46:18.984Z,70.70
2018-02-24T20:48:48.825Z,45.12
2018-02-24T20:51:19.468Z,65.95
2018-02-24T20:53:49.576Z,71.50
2018-02-24T20:56:20.153Z,47.53
2018-02-24T20:58:50.430Z,35.68
2018-02-24T21:01:22.057Z,24.87
2018-02-24T21:03:53.616Z,21.90
2018-02-24T21:06:25.417Z,27.42
2018-02-24T21:08:55.040Z,34.08
2018-02-24T21:11:24.788Z,26.97
2018-02-24T21:13:57.002Z,21.28
2018-02-24T21:16:26.447Z,26.17
2018-02-24T21:18:56.215Z,22.65
2018-02-24T21:21:28.526Z,22.16
2018-02-24T21:24:00.505Z,22.33
2018-02-24T21:26:32.958Z,23.99
2018-02-24T21:29:02.263Z,27.98
2018-02-24T21:31:31.668Z,24.12
2018-02-24T21:34:01.223Z,32.28
2018-02-24T21:36:36.188Z,25.96
2018-02-24T21:39:07.647Z,26.25
2018-02-24T21:41:36.957Z,36.48
2018-02-24T21:44:06.926Z,25.27
2018-02-24T21:46:39.614Z,25.23
2018-02-24T21:49:14.548Z,25.58
2018-02-24T21:51:44.126Z,31.87
2018-02-24T21:54:17.458Z,30.07
2018-02-24T21:56:46.580Z,30.05
2018-02-24T21:59:15.782Z,30.50
2018-02-24T22:01:44.982Z,37.83
2018-02-24T22:04:14.486Z,40.97
2018-02-24T22:06:46.770Z,37.76
2018-02-24T22:09:18.342Z,40.76
2018-02-24T22:11:56.728Z,41.86
2018-02-24T22:14:26.065Z,37.78
2018-02-24T22:16:56.070Z,44.54
2018-02-24T22:19:25.285Z,46.92
2018-02-24T22:21:57.212Z,51.08
2018-02-24T22:24:26.304Z,59.42
2018-02-24T22:26:56.701Z,62.97
2018-02-24T22:29:26.009Z,56.47
2018-02-24T22:31:56.256Z,54.80
2018-02-24T22:34:27.474Z,46.30
2018-02-24T22:36:56.608Z,37.90
2018-02-24T22:39:28.485Z,47.67
2018-02-24T22:41:57.699Z,53.33
2018-02-24T22:44:27.237Z,57.83
2018-02-24T22:46:59.218Z,65.40
2018-02-24T22:49:30.928Z,71.68
2018-02-24T22:52:06.094Z,86.53
2018-02-24T22:54:35.239Z,97.82
2018-02-24T22:57:04.955Z,94.47
2018-02-24T22:59:35.995Z,140.80
2018-02-24T23:02:05.436Z,123.54
2018-02-24T23:04:35.832Z,107.47
2018-02-24T23:07:05.328Z,80.18
2018-02-24T23:09:36.463Z,51.03
2018-02-24T23:12:09.484Z,49.93
2018-02-24T23:14:39.131Z,45.58
2018-02-24T23:17:10.427Z,47.82
2018-02-24T23:19:42.230Z,54.08
2018-02-24T23:22:11.994Z,45.17
2018-02-24T23:24:43.856Z,33.47
2018-02-24T23:27:16.640Z,33.62
2018-02-24T23:29:47.295Z,42.03
2018-02-24T23:32:19.183Z,36.32
2018-02-24T23:34:48.704Z,24.98
2018-02-24T23:37:19.557Z,26.34
2018-02-24T23:39:51.116Z,23.64
2018-02-24T23:42:20.654Z,25.98
2018-02-24T23:44:51.668Z,25.17
2018-02-24T23:47:24.618Z,15.07
2018-02-24T23:49:59.975Z,20.87
2018-02-24T23:52:29.132Z,20.43
2018-02-24T23:54:58.808Z,14.87
2018-02-24T23:57:29.556Z,17.16
2018-02-24T23:59:59.410Z,17.08
